createdAt,value
2018-06-22T00:01:43.577Z,99917.00
2018-06-22T00:04:12.974Z,99917.00
2018-06-22T00:06:42.386Z,99925.00
2018-06-22T00:09:12.237Z,99918.00
2018-06-22T00:11:41.733Z,99915.00
2018-06-22T00:14:11.117Z,99924.00
2018-06-22T00:16:40.540Z,99920.00
2018-06-22T00:19:10.341Z,99924.00
2018-06-22T00:21:39.741Z,99923.00
2018-06-22T00:24:09.213Z,99914.00
2018-06-22T00:26:38.704Z,99924.00
2018-06-22T00:29:08.019Z,99926.00
2018-06-22T00:31:37.360Z,99920.00
2018-06-22T00:34:06.768Z,99922.00
2018-06-22T00:36:36.208Z,99924.00
2018-06-22T00:39:08.922Z,99933.00
2018-06-22T00:41:38.385Z,99933.00
2018-06-22T00:44:07.898Z,99925.00
2018-06-22T00:46:37.218Z,99928.00
2018-06-22T00:49:07.319Z,99938.00
2018-06-22T00:51:36.758Z,99941.00
2018-06-22T00:54:19.050Z,99945.00
2018-06-22T00:56:48.931Z,99938.00
2018-06-22T00:59:18.570Z,99949.00
2018-06-22T01:01:48.073Z,99949.00
2018-06-22T01:04:17.512Z,99937.00
2018-06-22T01:06:46.861Z,99940.00
2018-06-22T01:09:16.176Z,99935.00
2018-06-22T01:11:45.642Z,99936.00
2018-06-22T01:14:15.427Z,99940.00
2018-06-22T01:16:44.917Z,99935.00
2018-06-22T01:19:14.335Z,99938.00
2018-06-22T01:21:44.333Z,99944.00
2018-06-22T01:24:13.726Z,99935.00
2018-06-22T01:26:43.140Z,99936.00
2018-06-22T01:29:17.627Z,99934.00
2018-06-22T01:31:47.043Z,99933.00
2018-06-22T01:34:16.384Z,99937.00
2018-06-22T01:36:46.781Z,99937.00
2018-06-22T01:39:16.093Z,99939.00
2018-06-22T01:41:46.432Z,99933.00
2018-06-22T01:44:15.780Z,99927.00
2018-06-22T01:46:45.241Z,99940.00
2018-06-22T01:49:14.781Z,99934.00
2018-06-22T01:51:44.122Z,99931.00
2018-06-22T01:54:13.582Z,99934.00
2018-06-22T01:56:43.407Z,99933.00
2018-06-22T01:59:13.887Z,99923.00
2018-06-22T02:01:43.252Z,99923.00
2018-06-22T02:04:13.261Z,99923.00
2018-06-22T02:06:42.780Z,99923.00
2018-06-22T02:09:13.737Z,99925.00
2018-06-22T02:11:43.976Z,99927.00
2018-06-22T02:14:14.995Z,99924.00
2018-06-22T02:16:44.450Z,99934.00
2018-06-22T02:19:14.418Z,99925.00
2018-06-22T02:21:43.755Z,99930.00
2018-06-22T02:24:13.294Z,99927.00
2018-06-22T02:26:42.945Z,99928.00
2018-06-22T02:29:12.454Z,99926.00
2018-06-22T02:31:41.780Z,99938.00
2018-06-22T02:34:11.108Z,99927.00
2018-06-22T02:36:40.650Z,99925.00
2018-06-22T02:39:11.889Z,99936.00
2018-06-22T02:41:42.035Z,99922.00
2018-06-22T02:44:11.451Z,99924.00
2018-06-22T02:46:40.942Z,99921.00
2018-06-22T02:49:10.402Z,99929.00
2018-06-22T02:51:39.721Z,99918.00
2018-06-22T02:54:09.252Z,99914.00
2018-06-22T02:56:39.396Z,99916.00
2018-06-22T02:59:08.747Z,99915.00
2018-06-22T03:01:38.923Z,99912.00
2018-06-22T03:04:08.249Z,99897.00
2018-06-22T03:06:37.741Z,99908.00
2018-06-22T03:09:09.202Z,99907.00
2018-06-22T03:11:38.699Z,99912.00
2018-06-22T03:14:08.217Z,99905.00
2018-06-22T03:16:37.783Z,99908.00
2018-06-22T03:19:07.097Z,99916.00
2018-06-22T03:21:36.417Z,99914.00
2018-06-22T03:24:05.923Z,99913.00
2018-06-22T03:26:35.387Z,99911.00
2018-06-22T03:29:04.852Z,99917.00
2018-06-22T03:31:36.016Z,99909.00
2018-06-22T03:34:05.500Z,99912.00
2018-06-22T03:36:34.993Z,99915.00
2018-06-22T03:39:06.165Z,99911.00
2018-06-22T03:41:35.884Z,99913.00
2018-06-22T03:44:05.382Z,99913.00
2018-06-22T03:46:35.177Z,99912.00
2018-06-22T03:49:05.441Z,99903.00
2018-06-22T03:51:34.872Z,99904.00
2018-06-22T03:54:04.339Z,99905.00
2018-06-22T03:56:33.745Z,99901.00
2018-06-22T03:59:04.168Z,99901.00
2018-06-22T04:01:34.932Z,99897.00
2018-06-22T04:04:04.474Z,99895.00
2018-06-22T04:06:33.836Z,99894.00
2018-06-22T04:09:03.395Z,99898.00
2018-06-22T04:11:33.487Z,99893.00
2018-06-22T04:14:02.849Z,99887.00
2018-06-22T04:16:32.177Z,99890.00
2018-06-22T04:19:01.672Z,99886.00
2018-06-22T04:21:31.164Z,99884.00
2018-06-22T04:24:00.637Z,99893.00
2018-06-22T04:26:29.985Z,99891.00
2018-06-22T04:28:59.506Z,99888.00
2018-06-22T04:31:29.088Z,99890.00
2018-06-22T04:33:58.441Z,99893.00
2018-06-22T04:36:27.760Z,99879.00
2018-06-22T04:38:57.110Z,99881.00
2018-06-22T04:41:27.380Z,99876.00
2018-06-22T04:43:57.804Z,99875.00
2018-06-22T04:46:27.269Z,99878.00
2018-06-22T04:48:56.737Z,99871.00
2018-06-22T04:51:26.149Z,99881.00
2018-06-22T04:53:55.533Z,99884.00
2018-06-22T04:56:25.486Z,99878.00
2018-06-22T04:58:55.122Z,99876.00
2018-06-22T05:01:24.704Z,99885.00
2018-06-22T05:03:54.587Z,99878.00
2018-06-22T05:06:23.731Z,99894.00
2018-06-22T05:08:53.351Z,99884.00
2018-06-22T05:11:22.866Z,99890.00
2018-06-22T05:13:52.335Z,99886.00
2018-06-22T05:16:21.778Z,99882.00
2018-06-22T05:18:51.246Z,99880.00
2018-06-22T05:21:21.520Z,99880.00
2018-06-22T05:23:50.973Z,99876.00
2018-06-22T05:26:21.248Z,99876.00
2018-06-22T05:28:51.734Z,99869.00
2018-06-22T05:31:21.645Z,99881.00
2018-06-22T05:33:51.576Z,99880.00
2018-06-22T05:36:21.178Z,99879.00
2018-06-22T05:38:50.758Z,99878.00
2018-06-22T05:41:20.394Z,99874.00
2018-06-22T05:43:50.116Z,99870.00
2018-06-22T05:46:20.202Z,99874.00
2018-06-22T05:48:49.953Z,99879.00
2018-06-22T05:51:19.345Z,99875.00
2018-06-22T05:53:48.758Z,99875.00
2018-06-22T05:56:18.161Z,99880.00
2018-06-22T05:58:47.626Z,99881.00
2018-06-22T06:01:17.055Z,99876.00
2018-06-22T06:03:46.734Z,99875.00
2018-06-22T06:06:16.157Z,99876.00
2018-06-22T06:08:45.734Z,99868.00
2018-06-22T06:11:15.178Z,99873.00
2018-06-22T06:13:44.750Z,99880.00
2018-06-22T06:16:14.251Z,99879.00
2018-06-22T06:18:44.564Z,99876.00
2018-06-22T06:21:14.058Z,99872.00
2018-06-22T06:23:43.504Z,99874.00
2018-06-22T06:26:12.994Z,99866.00
2018-06-22T06:28:42.617Z,99873.00
2018-06-22T06:31:12.116Z,99879.00
2018-06-22T06:33:41.729Z,99877.00
2018-06-22T06:36:11.235Z,99877.00
2018-06-22T06:38:40.683Z,99883.00
2018-06-22T06:41:10.171Z,99878.00
2018-06-22T06:43:39.501Z,99885.00
2018-06-22T06:46:09.602Z,99881.00
2018-06-22T06:48:39.159Z,99871.00
2018-06-22T06:51:08.586Z,99878.00
2018-06-22T06:53:38.044Z,99877.00
2018-06-22T06:56:07.470Z,99869.00
2018-06-22T06:58:37.002Z,99865.00
2018-06-22T07:01:06.626Z,99872.00
2018-06-22T07:03:36.128Z,99878.00
2018-06-22T07:06:06.156Z,99874.00
2018-06-22T07:08:35.522Z,99875.00
2018-06-22T07:11:04.982Z,99874.00
2018-06-22T07:13:35.349Z,99882.00
2018-06-22T07:16:05.608Z,99869.00
2018-06-22T07:18:35.759Z,99881.00
2018-06-22T07:21:05.176Z,99881.00
2018-06-22T07:23:34.736Z,99881.00
2018-06-22T07:26:04.148Z,99885.00
2018-06-22T07:28:33.570Z,99887.00
2018-06-22T07:31:03.039Z,99889.00
2018-06-22T07:33:32.427Z,99878.00
2018-06-22T07:36:02.039Z,99881.00
2018-06-22T07:38:31.404Z,99880.00
2018-06-22T07:41:00.876Z,99878.00
2018-06-22T07:43:30.322Z,99881.00
2018-06-22T07:45:59.729Z,99876.00
2018-06-22T07:48:29.117Z,99883.00
2018-06-22T07:50:58.642Z,99876.00
2018-06-22T07:53:28.059Z,99868.00
2018-06-22T07:55:57.632Z,99876.00
2018-06-22T07:58:26.983Z,99878.00
2018-06-22T08:00:56.510Z,99882.00
2018-06-22T08:03:25.949Z,99892.00
2018-06-22T08:05:55.530Z,99893.00
2018-06-22T08:08:25.004Z,99896.00
2018-06-22T08:10:54.589Z,99886.00
2018-06-22T08:13:24.147Z,99895.00
2018-06-22T08:15:53.492Z,99889.00
2018-06-22T08:18:23.364Z,99891.00
2018-06-22T08:20:52.719Z,99890.00
2018-06-22T08:23:22.619Z,99903.00
2018-06-22T08:25:52.325Z,99907.00
2018-06-22T08:28:21.384Z,99910.00
2018-06-22T08:30:50.915Z,99915.00
2018-06-22T08:33:20.273Z,99914.00
2018-06-22T08:35:49.720Z,99914.00
2018-06-22T08:38:19.196Z,99910.00
2018-06-22T08:40:49.624Z,99916.00
2018-06-22T08:43:19.046Z,99913.00
2018-06-22T08:45:48.867Z,99920.00
2018-06-22T08:48:18.294Z,99914.00
2018-06-22T08:50:47.673Z,99920.00
2018-06-22T08:53:17.028Z,99915.00
2018-06-22T08:55:46.539Z,99919.00
2018-06-22T08:58:15.998Z,99914.00
2018-06-22T09:00:45.639Z,99919.00
2018-06-22T09:03:15.042Z,99920.00
2018-06-22T09:05:44.455Z,99933.00
2018-06-22T09:08:13.941Z,99931.00
2018-06-22T09:10:43.499Z,99930.00
2018-06-22T09:13:12.949Z,99931.00
2018-06-22T09:15:42.485Z,99935.00
2018-06-22T09:18:12.074Z,99938.00
2018-06-22T09:20:41.533Z,99930.00
2018-06-22T09:23:10.921Z,99928.00
2018-06-22T09:25:40.881Z,99943.00
2018-06-22T09:28:10.421Z,99930.00
2018-06-22T09:30:39.884Z,99935.00
2018-06-22T09:33:09.562Z,99933.00
2018-06-22T09:35:38.959Z,99929.00
2018-06-22T09:38:08.507Z,99937.00
2018-06-22T09:40:37.925Z,99932.00
2018-06-22T09:43:07.362Z,99938.00
2018-06-22T09:45:36.839Z,99931.00
2018-06-22T09:48:06.790Z,99931.00
2018-06-22T09:50:36.169Z,99935.00
2018-06-22T09:53:06.827Z,99932.00
2018-06-22T09:55:36.465Z,99933.00
2018-06-22T09:58:05.910Z,99938.00
2018-06-22T10:00:35.719Z,99933.00
2018-06-22T10:03:05.219Z,99931.00
2018-06-22T10:05:34.769Z,99943.00
2018-06-22T10:08:04.346Z,99929.00
2018-06-22T10:10:33.763Z,99942.00
2018-06-22T10:13:03.174Z,99946.00
2018-06-22T10:15:32.905Z,99946.00
2018-06-22T10:18:02.400Z,99946.00
2018-06-22T10:20:32.595Z,99942.00
2018-06-22T10:23:02.178Z,99946.00
2018-06-22T10:25:31.734Z,99954.00
2018-06-22T10:28:02.032Z,99965.00
2018-06-22T10:30:31.508Z,99956.00
2018-06-22T10:33:01.045Z,99958.00
2018-06-22T10:35:30.673Z,99966.00
2018-06-22T10:38:00.307Z,99969.00
2018-06-22T10:40:30.361Z,99962.00
2018-06-22T10:43:00.001Z,99968.00
2018-06-22T10:45:30.072Z,99966.00
2018-06-22T10:47:59.593Z,99967.00
2018-06-22T10:50:29.140Z,99962.00
2018-06-22T10:52:58.457Z,99967.00
2018-06-22T10:55:28.422Z,99971.00
2018-06-22T10:57:57.958Z,99962.00
2018-06-22T11:00:27.623Z,99967.00
2018-06-22T11:02:57.200Z,99961.00
2018-06-22T11:05:27.605Z,99967.00
2018-06-22T11:07:57.100Z,99959.00
2018-06-22T11:10:26.626Z,99958.00
2018-06-22T11:12:56.094Z,99963.00
2018-06-22T11:15:25.642Z,99961.00
2018-06-22T11:17:55.122Z,99966.00
2018-06-22T11:20:24.512Z,99958.00
2018-06-22T11:22:53.930Z,99965.00
2018-06-22T11:25:23.353Z,99967.00
2018-06-22T11:27:53.371Z,99967.00
2018-06-22T11:30:22.924Z,99968.00
2018-06-22T11:32:52.459Z,99967.00
2018-06-22T11:35:22.150Z,99968.00
2018-06-22T11:37:53.218Z,99972.00
2018-06-22T11:40:22.602Z,99967.00
2018-06-22T11:42:52.086Z,99973.00
2018-06-22T11:45:21.595Z,99971.00
2018-06-22T11:47:51.017Z,99973.00
2018-06-22T11:50:20.429Z,99971.00
2018-06-22T11:52:49.965Z,99971.00
2018-06-22T11:55:19.396Z,99965.00
2018-06-22T11:57:48.552Z,99964.00
2018-06-22T12:00:17.892Z,99963.00
2018-06-22T12:02:47.573Z,99961.00
2018-06-22T12:05:17.101Z,99970.00
2018-06-22T12:07:46.536Z,99957.00
2018-06-22T12:10:15.880Z,99953.00
2018-06-22T12:12:45.267Z,99952.00
2018-06-22T12:15:15.458Z,99949.00
2018-06-22T12:17:44.924Z,99957.00
2018-06-22T12:20:14.309Z,99954.00
2018-06-22T12:22:43.879Z,99954.00
2018-06-22T12:25:13.142Z,99961.00
2018-06-22T12:27:42.635Z,99968.00
2018-06-22T12:30:12.031Z,99965.00
2018-06-22T12:32:41.376Z,99961.00
2018-06-22T12:35:11.189Z,99964.00
2018-06-22T12:37:40.561Z,99957.00
2018-06-22T12:40:10.074Z,99964.00
2018-06-22T12:42:39.645Z,99963.00
2018-06-22T12:45:09.290Z,99952.00
2018-06-22T12:47:38.721Z,99948.00
2018-06-22T12:50:14.355Z,99957.00
2018-06-22T12:52:43.846Z,99950.00
2018-06-22T12:55:13.312Z,99939.00
2018-06-22T12:57:42.880Z,99939.00
2018-06-22T13:00:12.206Z,99933.00
2018-06-22T13:02:41.591Z,99945.00
2018-06-22T13:05:11.194Z,99941.00
2018-06-22T13:07:40.835Z,99939.00
2018-06-22T13:10:10.783Z,99938.00
2018-06-22T13:12:40.261Z,99943.00
2018-06-22T13:15:09.751Z,99942.00
2018-06-22T13:17:39.216Z,99948.00
2018-06-22T13:20:08.605Z,99951.00
2018-06-22T13:22:38.204Z,99955.00
2018-06-22T13:25:07.622Z,99950.00
2018-06-22T13:27:37.204Z,99958.00
2018-06-22T13:30:06.819Z,99957.00
2018-06-22T13:32:36.296Z,99953.00
2018-06-22T13:35:06.047Z,99965.00
2018-06-22T13:37:35.403Z,99963.00
2018-06-22T13:40:05.737Z,99958.00
2018-06-22T13:42:35.138Z,99962.00
2018-06-22T13:45:04.707Z,99962.00
2018-06-22T13:47:34.184Z,99968.00
2018-06-22T13:50:04.365Z,99964.00
2018-06-22T13:52:34.109Z,99959.00
2018-06-22T13:55:04.755Z,99956.00
2018-06-22T13:57:34.864Z,99957.00
2018-06-22T14:00:04.880Z,99961.00
2018-06-22T14:02:34.398Z,99961.00
2018-06-22T14:05:09.412Z,99966.00
2018-06-22T14:07:39.277Z,99959.00
2018-06-22T14:10:09.297Z,99953.00
2018-06-22T14:12:39.207Z,99954.00
2018-06-22T14:15:08.592Z,99945.00
2018-06-22T14:17:38.110Z,99944.00
2018-06-22T14:20:07.610Z,99946.00
2018-06-22T14:22:37.254Z,99949.00
2018-06-22T14:25:06.890Z,99951.00
2018-06-22T14:27:36.590Z,99954.00
2018-06-22T14:30:06.841Z,99964.00
2018-06-22T14:32:36.400Z,99961.00
2018-06-22T14:35:05.923Z,99976.00
2018-06-22T14:37:35.372Z,99983.00
2018-06-22T14:40:04.954Z,100031.00
2018-06-22T14:42:34.807Z,100019.00
2018-06-22T14:45:04.452Z,99987.00
2018-06-22T14:47:34.193Z,99987.00
2018-06-22T14:50:08.366Z,99997.00
2018-06-22T14:52:37.825Z,99991.00
2018-06-22T14:55:12.145Z,99992.00
2018-06-22T14:57:46.803Z,100004.00
2018-06-22T15:01:22.516Z,99994.00
2018-06-22T15:03:57.105Z,100005.00
2018-06-22T15:06:32.146Z,100004.00
2018-06-22T15:09:01.628Z,99992.00
2018-06-22T15:11:31.116Z,99995.00
2018-06-22T15:14:00.528Z,99995.00
2018-06-22T15:16:30.093Z,99996.00
2018-06-22T15:18:59.695Z,99988.00
2018-06-22T15:21:29.201Z,99988.00
2018-06-22T15:23:58.570Z,99985.00
2018-06-22T15:26:27.991Z,99984.00
2018-06-22T15:28:57.462Z,99984.00
2018-06-22T15:31:26.898Z,99979.00
2018-06-22T15:34:02.203Z,99992.00
2018-06-22T15:36:37.084Z,99989.00
2018-06-22T15:39:14.519Z,99974.00
2018-06-22T15:41:49.301Z,99977.00
2018-06-22T15:44:24.211Z,99972.00
2018-06-22T15:46:58.883Z,99976.00
2018-06-22T15:49:33.746Z,99971.00
2018-06-22T15:52:09.318Z,99972.00
2018-06-22T15:54:43.876Z,99958.00
2018-06-22T15:57:13.061Z,99955.00
2018-06-22T15:59:42.534Z,99954.00
2018-06-22T16:02:17.191Z,99956.00
2018-06-22T16:04:47.384Z,99960.00
2018-06-22T16:07:17.795Z,99961.00
2018-06-22T16:09:52.495Z,99961.00
2018-06-22T16:12:27.290Z,99954.00
2018-06-22T16:15:02.041Z,99950.00
2018-06-22T16:17:36.978Z,99952.00
2018-06-22T16:20:11.766Z,99950.00
2018-06-22T16:22:46.495Z,99946.00
2018-06-22T16:25:21.266Z,99946.00
2018-06-22T16:27:55.781Z,99949.00
2018-06-22T16:30:25.986Z,99957.00
2018-06-22T16:32:56.269Z,99955.00
2018-06-22T16:35:26.087Z,99961.00
2018-06-22T16:37:55.960Z,99962.00
2018-06-22T16:40:25.316Z,99981.00
2018-06-22T16:42:54.711Z,99979.00
2018-06-22T16:45:24.343Z,99974.00
2018-06-22T16:47:53.804Z,99972.00
2018-06-22T16:50:23.178Z,99975.00
2018-06-22T16:52:52.708Z,99980.00
2018-06-22T16:55:22.231Z,99975.00
2018-06-22T16:57:51.649Z,99977.00
2018-06-22T17:00:21.105Z,99976.00
2018-06-22T17:02:50.612Z,99979.00
2018-06-22T17:05:19.968Z,99983.00
2018-06-22T17:07:54.709Z,99973.00
2018-06-22T17:10:29.421Z,99978.00
2018-06-22T17:13:04.063Z,99980.00
2018-06-22T17:15:38.647Z,99982.00
2018-06-22T17:18:13.411Z,99982.00
2018-06-22T17:20:42.952Z,99975.00
2018-06-22T17:23:12.324Z,99981.00
2018-06-22T17:25:41.785Z,99984.00
2018-06-22T17:28:11.189Z,99983.00
2018-06-22T17:30:40.717Z,99988.00
2018-06-22T17:33:11.002Z,99993.00
2018-06-22T17:35:40.475Z,99995.00
2018-06-22T17:38:10.071Z,99987.00
2018-06-22T17:40:39.626Z,99985.00
2018-06-22T17:43:09.160Z,99989.00
2018-06-22T17:45:38.702Z,99986.00
2018-06-22T17:48:08.108Z,99986.00
2018-06-22T17:50:37.515Z,99994.00
2018-06-22T17:53:07.016Z,100005.00
2018-06-22T17:55:36.423Z,100012.00
2018-06-22T17:58:06.015Z,100029.00
2018-06-22T18:00:40.763Z,100037.00
2018-06-22T18:03:15.374Z,100074.00
2018-06-22T18:05:50.125Z,100067.00
2018-06-22T18:08:24.773Z,100054.00
2018-06-22T18:10:59.101Z,100060.00
2018-06-22T18:13:29.422Z,100056.00
2018-06-22T18:15:58.880Z,100051.00
2018-06-22T18:18:28.526Z,100060.00
2018-06-22T18:20:57.990Z,100057.00
2018-06-22T18:23:27.401Z,100057.00
2018-06-22T18:25:57.968Z,100059.00
2018-06-22T18:28:27.684Z,100060.00
2018-06-22T18:30:57.245Z,100052.00
2018-06-22T18:33:26.584Z,100060.00
2018-06-22T18:35:56.054Z,100053.00
2018-06-22T18:38:25.701Z,100066.00
2018-06-22T18:40:55.257Z,100064.00
2018-06-22T18:43:29.786Z,100063.00
2018-06-22T18:45:59.266Z,100063.00
2018-06-22T18:48:28.762Z,100064.00
2018-06-22T18:50:58.357Z,100062.00
2018-06-22T18:53:33.072Z,100055.00
2018-06-22T18:56:09.773Z,100059.00
2018-06-22T18:58:44.204Z,100064.00
2018-06-22T19:01:18.818Z,100063.00
2018-06-22T19:03:49.609Z,100065.00
2018-06-22T19:06:19.149Z,100062.00
2018-06-22T19:08:48.770Z,100069.00
2018-06-22T19:11:18.168Z,100059.00
2018-06-22T19:13:47.667Z,100067.00
2018-06-22T19:16:17.651Z,100066.00
2018-06-22T19:18:47.128Z,100075.00
2018-06-22T19:21:16.518Z,100075.00
2018-06-22T19:23:45.972Z,100075.00
2018-06-22T19:26:15.451Z,100064.00
2018-06-22T19:28:44.864Z,100076.00
2018-06-22T19:31:14.401Z,100085.00
2018-06-22T19:33:44.522Z,100080.00
2018-06-22T19:36:13.991Z,100090.00
2018-06-22T19:38:43.350Z,100088.00
2018-06-22T19:41:12.913Z,100086.00
2018-06-22T19:43:47.728Z,100088.00
2018-06-22T19:46:22.308Z,100090.00
2018-06-22T19:48:56.779Z,100091.00
2018-06-22T19:51:31.560Z,100099.00
2018-06-22T19:54:03.506Z,100094.00
2018-06-22T19:56:32.913Z,100098.00
2018-06-22T19:59:02.458Z,100102.00
2018-06-22T20:01:31.828Z,100107.00
2018-06-22T20:04:01.204Z,100106.00
2018-06-22T20:06:30.636Z,100110.00
2018-06-22T20:09:00.326Z,100108.00
2018-06-22T20:11:29.731Z,100127.00
2018-06-22T20:13:59.234Z,100129.00
2018-06-22T20:16:28.624Z,100125.00
2018-06-22T20:18:58.669Z,100125.00
2018-06-22T20:21:28.764Z,100131.00
2018-06-22T20:23:59.084Z,100136.00
2018-06-22T20:26:28.518Z,100136.00
2018-06-22T20:28:57.922Z,100132.00
2018-06-22T20:31:32.529Z,100140.00
2018-06-22T20:34:07.692Z,100143.00
2018-06-22T20:36:42.433Z,100136.00
2018-06-22T20:39:16.982Z,100138.00
2018-06-22T20:41:51.542Z,100139.00
2018-06-22T20:44:26.349Z,100138.00
2018-06-22T20:47:01.032Z,100141.00
2018-06-22T20:49:35.830Z,100147.00
2018-06-22T20:52:05.291Z,100148.00
2018-06-22T20:54:35.008Z,100156.00
2018-06-22T20:57:04.702Z,100157.00
2018-06-22T20:59:34.188Z,100153.00
2018-06-22T21:02:03.826Z,100150.00
2018-06-22T21:04:32.911Z,100163.00
2018-06-22T21:07:02.565Z,100159.00
2018-06-22T21:09:33.012Z,100162.00
2018-06-22T21:12:02.500Z,100166.00
2018-06-22T21:14:31.888Z,100166.00
2018-06-22T21:17:00.961Z,100175.00
2018-06-22T21:19:30.602Z,100164.00
2018-06-22T21:22:05.393Z,100171.00
2018-06-22T21:24:34.881Z,100178.00
2018-06-22T21:27:09.676Z,100181.00
2018-06-22T21:29:44.405Z,100180.00
2018-06-22T21:32:19.111Z,100190.00
2018-06-22T21:34:53.896Z,100184.00
2018-06-22T21:37:28.603Z,100187.00
2018-06-22T21:39:58.194Z,100186.00
2018-06-22T21:42:27.768Z,100188.00
2018-06-22T21:44:57.379Z,100185.00
2018-06-22T21:47:26.953Z,100188.00
2018-06-22T21:49:56.341Z,100184.00
2018-06-22T21:52:26.003Z,100184.00
2018-06-22T21:54:55.729Z,100186.00
2018-06-22T21:57:25.222Z,100194.00
2018-06-22T21:59:54.744Z,100191.00
2018-06-22T22:02:24.256Z,100190.00
2018-06-22T22:04:53.715Z,100193.00
2018-06-22T22:07:23.280Z,100194.00
2018-06-22T22:09:52.782Z,100191.00
2018-06-22T22:12:22.184Z,100190.00
2018-06-22T22:14:51.628Z,100190.00
2018-06-22T22:17:21.217Z,100195.00
2018-06-22T22:19:50.559Z,100194.00
2018-06-22T22:22:20.034Z,100194.00
2018-06-22T22:24:49.552Z,100203.00
2018-06-22T22:27:19.005Z,100197.00
2018-06-22T22:29:48.512Z,100196.00
2018-06-22T22:32:17.954Z,100195.00
2018-06-22T22:34:47.337Z,100195.00
2018-06-22T22:37:16.946Z,100196.00
2018-06-22T22:39:46.364Z,100192.00
2018-06-22T22:42:15.872Z,100188.00
2018-06-22T22:44:45.284Z,100199.00
2018-06-22T22:47:14.762Z,100195.00
2018-06-22T22:49:44.184Z,100198.00
2018-06-22T22:52:13.729Z,100200.00
2018-06-22T22:54:43.621Z,100200.00
2018-06-22T22:57:13.218Z,100197.00
2018-06-22T22:59:42.607Z,100191.00
2018-06-22T23:02:12.033Z,100192.00
2018-06-22T23:04:41.543Z,100191.00
2018-06-22T23:07:11.065Z,100195.00
2018-06-22T23:09:40.564Z,100199.00
2018-06-22T23:12:10.173Z,100197.00
2018-06-22T23:14:39.762Z,100187.00
2018-06-22T23:17:09.233Z,100200.00
2018-06-22T23:19:38.691Z,100188.00
2018-06-22T23:22:08.218Z,100187.00
2018-06-22T23:24:37.746Z,100187.00
2018-06-22T23:27:07.298Z,100186.00
2018-06-22T23:29:36.957Z,100178.00
2018-06-22T23:32:07.381Z,100178.00
2018-06-22T23:34:36.867Z,100177.00
2018-06-22T23:37:07.419Z,100174.00
2018-06-22T23:39:36.774Z,100179.00
2018-06-22T23:42:06.170Z,100179.00
2018-06-22T23:44:36.144Z,100177.00
2018-06-22T23:47:05.627Z,100184.00
2018-06-22T23:49:35.040Z,100176.00
2018-06-22T23:52:04.483Z,100183.00
2018-06-22T23:54:33.999Z,100177.00
2018-06-22T23:57:03.490Z,100177.00
2018-06-22T23:59:33.349Z,100180.00
